createdAt,value
2022-10-08T00:02:05.134Z,56
2022-10-08T00:04:36.349Z,64
2022-10-08T00:07:07.448Z,55
2022-10-08T00:09:38.493Z,56
2022-10-08T00:12:08.259Z,52
2022-10-08T00:14:39.044Z,40
2022-10-08T00:17:09.766Z,45
2022-10-08T00:19:40.797Z,38
2022-10-08T00:22:12.012Z,44
2022-10-08T00:24:43.710Z,37
2022-10-08T00:27:15.195Z,37
2022-10-08T00:29:46.903Z,46
2022-10-08T00:32:18.553Z,41
2022-10-08T00:34:49.917Z,32
2022-10-08T00:37:21.264Z,32
2022-10-08T00:39:52.439Z,31
2022-10-08T00:42:23.684Z,32
2022-10-08T00:44:55.064Z,38
2022-10-08T00:47:26.071Z,40
2022-10-08T00:49:57.569Z,36
2022-10-08T00:52:28.519Z,36
2022-10-08T00:54:59.829Z,35
2022-10-08T00:57:31.044Z,41
2022-10-08T01:00:00.724Z,36
2022-10-08T01:02:30.250Z,41
2022-10-08T01:05:01.229Z,34
2022-10-08T01:07:32.122Z,37
2022-10-08T01:10:02.689Z,37
2022-10-08T01:12:32.311Z,36
2022-10-08T01:15:03.105Z,35
2022-10-08T01:17:33.992Z,33
2022-10-08T01:20:05.275Z,33
2022-10-08T01:22:36.281Z,33
2022-10-08T01:25:09.192Z,28
2022-10-08T01:27:41.385Z,32
2022-10-08T01:30:10.789Z,32
2022-10-08T01:32:42.186Z,28
2022-10-08T01:35:13.258Z,26
2022-10-08T01:37:45.160Z,31
2022-10-08T01:40:16.208Z,26
2022-10-08T01:42:47.298Z,28
2022-10-08T01:45:17.983Z,27
2022-10-08T01:47:51.132Z,24
2022-10-08T01:50:22.350Z,24
2022-10-08T01:52:54.040Z,25
2022-10-08T01:55:25.112Z,27
2022-10-08T01:57:56.222Z,28
2022-10-08T02:00:27.512Z,24
2022-10-08T02:02:59.980Z,29
2022-10-08T02:05:30.935Z,28
2022-10-08T02:08:01.810Z,29
2022-10-08T02:10:32.888Z,32
2022-10-08T02:13:04.574Z,24
2022-10-08T02:15:34.074Z,31
2022-10-08T02:18:04.823Z,25
2022-10-08T02:20:36.508Z,28
2022-10-08T02:23:07.652Z,29
2022-10-08T02:25:38.256Z,27
2022-10-08T02:28:07.344Z,28
2022-10-08T02:30:38.111Z,26
2022-10-08T02:33:10.258Z,24
2022-10-08T02:35:41.284Z,20
2022-10-08T02:38:12.019Z,23
2022-10-08T02:40:42.435Z,25
2022-10-08T02:43:14.456Z,24
2022-10-08T02:45:45.543Z,22
2022-10-08T02:48:18.627Z,32
2022-10-08T02:50:49.038Z,28
2022-10-08T02:53:19.940Z,27
2022-10-08T02:55:50.190Z,28
2022-10-08T02:58:21.101Z,32
2022-10-08T03:00:54.154Z,24
2022-10-08T03:03:25.105Z,24
2022-10-08T03:08:48.157Z,31
2022-10-08T03:11:19.384Z,28
2022-10-08T03:13:51.361Z,27
2022-10-08T03:16:22.183Z,24
2022-10-08T03:18:51.377Z,29
2022-10-08T03:21:22.279Z,24
2022-10-08T03:23:53.419Z,22
2022-10-08T03:26:24.325Z,29
2022-10-08T03:28:56.651Z,24
2022-10-08T03:31:28.144Z,28
2022-10-08T03:33:57.411Z,27
2022-10-08T03:36:30.509Z,25
2022-10-08T03:39:03.046Z,21
2022-10-08T03:41:34.244Z,27
2022-10-08T03:44:06.539Z,24
2022-10-08T03:46:37.838Z,24
2022-10-08T03:49:09.220Z,24
2022-10-08T03:51:40.249Z,25
2022-10-08T03:54:10.523Z,23
2022-10-08T03:56:41.389Z,31
2022-10-08T03:59:13.052Z,23
2022-10-08T04:01:44.240Z,16
2022-10-08T04:04:15.975Z,23
2022-10-08T04:06:48.458Z,19
2022-10-08T04:09:19.293Z,24
2022-10-08T04:11:50.535Z,28
2022-10-08T04:14:21.278Z,19
2022-10-08T04:16:52.042Z,17
2022-10-08T04:19:24.155Z,20
2022-10-08T04:21:55.625Z,25
2022-10-08T04:24:26.942Z,23
2022-10-08T04:26:58.235Z,23
2022-10-08T04:29:29.483Z,24
2022-10-08T04:32:00.758Z,23
2022-10-08T04:34:30.504Z,22
2022-10-08T04:37:02.140Z,20
2022-10-08T04:39:32.743Z,24
2022-10-08T04:42:03.374Z,27
2022-10-08T04:44:34.454Z,28
2022-10-08T04:47:06.361Z,20
2022-10-08T04:49:38.349Z,16
2022-10-08T04:52:09.776Z,27
2022-10-08T04:54:40.660Z,24
2022-10-08T04:57:12.342Z,20
2022-10-08T04:59:59.647Z,20
2022-10-08T05:02:16.623Z,26
2022-10-08T05:04:47.955Z,22
2022-10-08T05:07:19.346Z,23
2022-10-08T05:09:51.029Z,34
2022-10-08T05:12:22.039Z,31
2022-10-08T05:14:53.169Z,21
2022-10-08T05:17:23.851Z,20
2022-10-08T05:19:55.763Z,19
2022-10-08T05:22:26.269Z,32
2022-10-08T05:24:57.991Z,19
2022-10-08T05:27:28.996Z,23
2022-10-08T05:29:59.684Z,22
2022-10-08T05:32:30.528Z,28
2022-10-08T05:35:05.328Z,12
2022-10-08T05:37:36.382Z,23
2022-10-08T05:40:07.879Z,29
2022-10-08T05:42:39.091Z,24
2022-10-08T05:45:11.259Z,28
2022-10-08T05:47:43.005Z,22
2022-10-08T05:50:14.079Z,28
2022-10-08T05:52:45.352Z,24
2022-10-08T05:55:16.471Z,25
2022-10-08T05:57:47.524Z,24
2022-10-08T06:00:18.852Z,29
2022-10-08T06:02:50.849Z,23
2022-10-08T06:05:20.023Z,37
2022-10-08T06:07:52.502Z,20
2022-10-08T06:10:23.763Z,21
2022-10-08T06:12:54.554Z,27
2022-10-08T06:15:25.657Z,23
2022-10-08T06:17:56.662Z,23
2022-10-08T06:20:31.733Z,24
2022-10-08T06:23:00.543Z,20
2022-10-08T06:25:30.983Z,20
2022-10-08T06:28:02.423Z,26
2022-10-08T06:30:33.690Z,18
2022-10-08T06:33:04.437Z,21
2022-10-08T06:35:35.276Z,20
2022-10-08T06:38:06.773Z,24
2022-10-08T06:40:37.548Z,23
2022-10-08T06:43:08.654Z,28
2022-10-08T06:45:39.408Z,21
2022-10-08T06:48:10.217Z,21
2022-10-08T06:50:39.831Z,25
2022-10-08T06:53:13.147Z,21
2022-10-08T06:55:44.214Z,21
2022-10-08T06:58:15.522Z,20
2022-10-08T07:00:46.382Z,23
2022-10-08T07:03:20.486Z,20
2022-10-08T07:05:51.453Z,25
2022-10-08T07:08:23.011Z,31
2022-10-08T07:10:53.663Z,17
2022-10-08T07:13:24.455Z,20
2022-10-08T07:15:57.112Z,22
2022-10-08T07:18:28.411Z,21
2022-10-08T07:20:58.481Z,28
2022-10-08T07:23:29.280Z,24
2022-10-08T07:26:00.201Z,27
2022-10-08T07:28:31.109Z,25
2022-10-08T07:31:01.622Z,25
2022-10-08T07:33:32.146Z,23
2022-10-08T07:36:03.158Z,24
2022-10-08T07:38:36.272Z,18
2022-10-08T07:41:07.273Z,20
2022-10-08T07:43:38.148Z,21
2022-10-08T07:46:10.651Z,19
2022-10-08T07:48:41.501Z,17
2022-10-08T07:51:12.066Z,24
2022-10-08T07:53:43.388Z,30
2022-10-08T07:56:14.854Z,23
2022-10-08T07:58:45.546Z,24
2022-10-08T08:01:17.729Z,18
2022-10-08T08:03:48.777Z,21
2022-10-08T08:06:20.511Z,22
2022-10-08T08:08:51.769Z,20
2022-10-08T08:11:21.682Z,26
2022-10-08T08:13:55.262Z,17
2022-10-08T08:16:26.510Z,20
2022-10-08T08:18:57.450Z,23
2022-10-08T08:21:28.387Z,25
2022-10-08T08:23:59.117Z,25
2022-10-08T08:26:30.733Z,23
2022-10-08T08:29:01.975Z,35
2022-10-08T08:31:33.479Z,29
2022-10-08T08:34:04.491Z,28
2022-10-08T08:36:35.471Z,28
2022-10-08T08:39:10.276Z,24
2022-10-08T08:41:41.205Z,26
2022-10-08T08:44:13.350Z,23
2022-10-08T08:46:44.491Z,21
2022-10-08T08:49:16.083Z,23
2022-10-08T08:51:47.597Z,23
2022-10-08T08:54:18.737Z,26
2022-10-08T08:56:49.687Z,21
2022-10-08T08:59:21.237Z,20
2022-10-08T09:01:52.449Z,22
2022-10-08T09:04:23.096Z,23
2022-10-08T09:06:53.689Z,23
2022-10-08T09:09:25.971Z,18
2022-10-08T09:11:58.325Z,20
2022-10-08T09:14:28.856Z,23
2022-10-08T09:17:00.245Z,26
2022-10-08T09:19:31.988Z,19
2022-10-08T09:22:01.600Z,22
2022-10-08T09:24:34.013Z,18
2022-10-08T09:27:05.020Z,17
2022-10-08T09:29:35.354Z,31
2022-10-08T09:32:06.338Z,29
2022-10-08T09:34:39.881Z,29
2022-10-08T09:37:11.615Z,20
2022-10-08T09:39:43.119Z,21
2022-10-08T09:42:15.170Z,17
2022-10-08T09:44:53.747Z,20
2022-10-08T09:47:23.892Z,20
2022-10-08T09:49:55.888Z,18
2022-10-08T09:52:32.512Z,16
2022-10-08T09:55:03.655Z,21
2022-10-08T09:57:32.868Z,23
2022-10-08T10:00:05.051Z,17
2022-10-08T10:02:34.277Z,21
2022-10-08T10:05:05.371Z,17
2022-10-08T10:07:36.479Z,20
2022-10-08T10:10:07.391Z,21
2022-10-08T10:12:38.455Z,15
2022-10-08T10:15:08.228Z,20
2022-10-08T10:17:38.677Z,20
2022-10-08T10:20:08.221Z,20
2022-10-08T10:22:39.063Z,25
2022-10-08T10:25:09.950Z,17
2022-10-08T10:27:41.922Z,19
2022-10-08T10:30:13.194Z,19
2022-10-08T10:32:44.503Z,19
2022-10-08T10:35:15.087Z,21
2022-10-08T10:37:45.632Z,20
2022-10-08T10:40:17.785Z,23
2022-10-08T10:42:50.196Z,31
2022-10-08T10:45:21.022Z,20
2022-10-08T10:47:50.105Z,20
2022-10-08T10:50:21.359Z,22
2022-10-08T10:52:52.471Z,20
2022-10-08T10:55:21.759Z,20
2022-10-08T10:57:53.753Z,33
2022-10-08T11:00:26.046Z,24
2022-10-08T11:02:56.718Z,20
2022-10-08T11:05:28.459Z,23
2022-10-08T11:07:59.541Z,19
2022-10-08T11:10:30.489Z,23
2022-10-08T11:13:01.081Z,36
2022-10-08T11:15:31.245Z,27
2022-10-08T11:18:01.844Z,36
2022-10-08T11:20:31.363Z,42
2022-10-08T11:23:03.069Z,31
2022-10-08T11:25:44.824Z,31
2022-10-08T11:28:06.690Z,32
2022-10-08T11:30:37.816Z,31
2022-10-08T11:33:08.716Z,37
2022-10-08T11:35:39.519Z,32
2022-10-08T11:38:11.025Z,39
2022-10-08T11:40:42.186Z,40
2022-10-08T11:43:13.620Z,44
2022-10-08T11:45:44.501Z,40
2022-10-08T11:48:14.902Z,45
2022-10-08T11:50:45.759Z,28
2022-10-08T11:53:18.487Z,33
2022-10-08T11:55:49.628Z,36
2022-10-08T11:58:20.236Z,40
2022-10-08T12:00:51.668Z,39
2022-10-08T12:03:22.341Z,21
2022-10-08T12:05:52.646Z,22
2022-10-08T12:08:23.907Z,24
2022-10-08T12:10:54.234Z,21
2022-10-08T12:13:24.925Z,23
2022-10-08T12:15:55.643Z,23
2022-10-08T12:18:26.983Z,25
2022-10-08T12:20:58.234Z,25
2022-10-08T12:23:29.462Z,42
2022-10-08T12:26:00.380Z,40
2022-10-08T12:28:31.172Z,37
2022-10-08T12:31:02.470Z,34
2022-10-08T12:33:32.853Z,31
2022-10-08T12:36:03.754Z,33
2022-10-08T12:38:40.453Z,20
2022-10-08T12:41:13.532Z,21
2022-10-08T12:43:44.351Z,19
2022-10-08T12:46:14.942Z,21
2022-10-08T12:48:46.015Z,20
2022-10-08T12:51:16.588Z,24
2022-10-08T12:53:48.124Z,24
2022-10-08T12:56:19.250Z,36
2022-10-08T12:58:50.473Z,42
2022-10-08T13:01:23.350Z,23
2022-10-08T13:03:54.746Z,20
2022-10-08T13:06:29.312Z,25
2022-10-08T13:08:58.389Z,24
2022-10-08T13:11:29.183Z,25
2022-10-08T13:14:02.983Z,21
2022-10-08T13:16:35.564Z,24
2022-10-08T13:19:07.359Z,31
2022-10-08T13:21:38.651Z,22
2022-10-08T13:24:09.405Z,24
2022-10-08T13:26:40.237Z,29
2022-10-08T13:29:11.773Z,23
2022-10-08T13:31:43.375Z,24
2022-10-08T13:34:16.905Z,19
2022-10-08T13:36:48.361Z,24
2022-10-08T13:39:21.569Z,20
2022-10-08T13:41:54.791Z,14
2022-10-08T13:44:26.476Z,20
2022-10-08T13:47:01.440Z,23
2022-10-08T13:49:28.598Z,26
2022-10-08T13:51:59.767Z,19
2022-10-08T13:54:30.770Z,23
2022-10-08T13:57:01.341Z,21
2022-10-08T13:59:36.729Z,20
2022-10-08T14:02:07.567Z,24
2022-10-08T14:04:37.348Z,29
2022-10-08T14:07:08.500Z,24
2022-10-08T14:09:38.806Z,23
2022-10-08T14:12:07.930Z,24
2022-10-08T14:14:39.759Z,24
2022-10-08T14:17:15.418Z,21
2022-10-08T14:19:47.201Z,23
2022-10-08T14:22:18.107Z,21
2022-10-08T14:24:52.607Z,23
2022-10-08T14:27:24.139Z,20
2022-10-08T14:29:54.945Z,20
2022-10-08T14:32:29.656Z,29
2022-10-08T14:35:01.040Z,24
2022-10-08T14:37:32.166Z,20
2022-10-08T14:40:03.717Z,24
2022-10-08T14:42:36.926Z,19
2022-10-08T14:45:08.645Z,20
2022-10-08T14:47:39.613Z,16
2022-10-08T14:50:10.893Z,16
2022-10-08T14:52:44.246Z,24
2022-10-08T14:55:11.588Z,20
2022-10-08T14:57:42.636Z,18
2022-10-08T15:00:14.449Z,16
2022-10-08T15:02:51.965Z,21
2022-10-08T15:05:23.250Z,20
2022-10-08T15:07:56.071Z,20
2022-10-08T15:10:28.869Z,20
2022-10-08T15:13:00.355Z,26
2022-10-08T15:15:30.870Z,23
2022-10-08T15:18:01.906Z,19
2022-10-08T15:20:38.177Z,19
2022-10-08T15:23:09.764Z,24
2022-10-08T15:25:40.903Z,23
2022-10-08T15:28:13.153Z,23
2022-10-08T15:30:44.491Z,25
2022-10-08T15:33:16.976Z,24
2022-10-08T15:35:48.125Z,29
2022-10-08T15:38:19.439Z,26
2022-10-08T15:40:50.532Z,34
2022-10-08T15:43:21.625Z,40
2022-10-08T15:45:53.959Z,36
2022-10-08T15:48:25.259Z,37
2022-10-08T15:50:57.503Z,28
2022-10-08T15:53:31.011Z,24
2022-10-08T15:56:03.183Z,35
2022-10-08T15:58:49.225Z,28
2022-10-08T16:01:03.110Z,30
2022-10-08T16:03:34.170Z,24
2022-10-08T16:06:05.512Z,29
2022-10-08T16:08:36.953Z,25
2022-10-08T16:11:08.761Z,28
2022-10-08T16:13:39.858Z,28
2022-10-08T16:16:15.252Z,33
2022-10-08T16:18:45.577Z,27
2022-10-08T16:21:16.719Z,32
2022-10-08T16:23:48.276Z,48
2022-10-08T16:26:21.766Z,44
2022-10-08T16:28:53.444Z,43
2022-10-08T16:31:25.012Z,40
2022-10-08T16:33:56.040Z,44
2022-10-08T16:36:27.325Z,48
2022-10-08T16:38:59.266Z,45
2022-10-08T16:41:32.059Z,44
2022-10-08T16:44:06.470Z,45
2022-10-08T16:46:36.006Z,45
2022-10-08T16:49:08.345Z,54
2022-10-08T16:51:39.446Z,52
2022-10-08T16:54:10.489Z,50
2022-10-08T16:56:41.790Z,52
2022-10-08T16:59:18.481Z,49
2022-10-08T17:01:49.364Z,49
2022-10-08T17:04:21.869Z,57
2022-10-08T17:07:00.427Z,57
2022-10-08T17:09:32.038Z,52
2022-10-08T17:12:03.825Z,62
2022-10-08T17:14:34.918Z,57
2022-10-08T17:17:07.339Z,53
2022-10-08T17:19:38.908Z,44
2022-10-08T17:22:10.319Z,40
2022-10-08T17:24:42.591Z,49
2022-10-08T17:27:20.876Z,47
2022-10-08T17:29:51.828Z,44
2022-10-08T17:32:23.314Z,45
2022-10-08T17:34:56.811Z,48
2022-10-08T17:37:29.486Z,48
2022-10-08T17:40:03.975Z,47
2022-10-08T17:42:36.460Z,51
2022-10-08T17:45:10.580Z,47
2022-10-08T17:47:43.885Z,48
2022-10-08T17:50:15.374Z,52
2022-10-08T17:52:45.660Z,56
2022-10-08T17:55:17.139Z,61
2022-10-08T17:57:50.978Z,56
2022-10-08T18:00:21.987Z,56
2022-10-08T18:02:53.128Z,52
2022-10-08T18:05:24.654Z,53
2022-10-08T18:07:56.035Z,57
2022-10-08T18:10:30.873Z,53
2022-10-08T18:13:03.046Z,56
2022-10-08T18:15:35.495Z,56
2022-10-08T18:18:07.789Z,56
2022-10-08T18:20:39.679Z,61
2022-10-08T18:23:10.916Z,59
2022-10-08T18:25:43.370Z,62
2022-10-08T18:28:14.865Z,58
2022-10-08T18:30:48.642Z,50
2022-10-08T18:33:22.793Z,57
2022-10-08T18:35:51.462Z,56
2022-10-08T18:38:22.940Z,61
2022-10-08T18:40:54.154Z,60
2022-10-08T18:43:24.612Z,60
2022-10-08T18:45:56.307Z,67
2022-10-08T18:48:26.347Z,58
2022-10-08T18:50:57.519Z,61
2022-10-08T18:53:29.667Z,59
2022-10-08T18:56:02.799Z,60
2022-10-08T18:58:37.189Z,56
2022-10-08T19:01:08.968Z,63
2022-10-08T19:03:40.565Z,60
2022-10-08T19:06:14.611Z,59
2022-10-08T19:08:45.573Z,56
2022-10-08T19:11:17.542Z,55
2022-10-08T19:13:50.021Z,56
2022-10-08T19:16:22.772Z,52
2022-10-08T19:18:53.570Z,52
2022-10-08T19:21:25.625Z,60
2022-10-08T19:23:57.395Z,56
2022-10-08T19:26:30.944Z,52
2022-10-08T19:29:03.073Z,55
2022-10-08T19:31:34.838Z,51
2022-10-08T19:34:06.521Z,55
2022-10-08T19:36:38.178Z,63
2022-10-08T19:39:10.922Z,56
2022-10-08T19:41:41.158Z,66
2022-10-08T19:44:12.033Z,60
2022-10-08T19:46:43.750Z,60
2022-10-08T19:49:15.813Z,57
2022-10-08T19:51:47.308Z,60
2022-10-08T19:54:18.575Z,57
2022-10-08T19:56:54.052Z,54
2022-10-08T19:59:25.612Z,52
2022-10-08T20:01:58.683Z,52
2022-10-08T20:04:28.432Z,60
2022-10-08T20:07:00.959Z,58
2022-10-08T20:09:33.073Z,58
2022-10-08T20:12:04.501Z,66
2022-10-08T20:14:35.985Z,54
2022-10-08T20:17:07.457Z,52
2022-10-08T20:19:38.990Z,60
2022-10-08T20:22:11.924Z,59
2022-10-08T20:24:41.440Z,56
2022-10-08T20:27:10.946Z,58
2022-10-08T20:29:42.189Z,62
2022-10-08T20:32:14.559Z,60
2022-10-08T20:34:47.860Z,56
2022-10-08T20:37:19.362Z,60
2022-10-08T20:39:51.788Z,58
2022-10-08T20:42:23.091Z,57
2022-10-08T20:44:54.100Z,56
2022-10-08T20:47:25.195Z,65
2022-10-08T20:49:56.522Z,60
2022-10-08T20:52:29.721Z,62
2022-10-08T20:55:01.434Z,61
2022-10-08T20:57:32.654Z,63
2022-10-08T21:00:04.339Z,60
2022-10-08T21:02:37.306Z,60
2022-10-08T21:05:07.915Z,59
2022-10-08T21:07:39.562Z,64
2022-10-08T21:10:10.180Z,59
2022-10-08T21:12:41.298Z,59
2022-10-08T21:15:13.628Z,62
2022-10-08T21:17:47.038Z,60
2022-10-08T21:20:18.760Z,64
2022-10-08T21:22:51.620Z,58
2022-10-08T21:25:24.643Z,67
2022-10-08T21:27:55.726Z,61
2022-10-08T21:30:27.056Z,65
2022-10-08T21:32:58.508Z,64
2022-10-08T21:35:31.906Z,59
2022-10-08T21:38:07.532Z,64
2022-10-08T21:40:39.393Z,64
2022-10-08T21:43:10.748Z,64
2022-10-08T21:45:41.692Z,65
2022-10-08T21:48:11.894Z,63
2022-10-08T21:50:43.228Z,65
2022-10-08T21:53:15.422Z,68
2022-10-08T21:55:46.518Z,63
2022-10-08T21:58:17.621Z,64
2022-10-08T22:00:49.682Z,68
2022-10-08T22:03:20.438Z,64
2022-10-08T22:05:51.521Z,62
2022-10-08T22:08:22.786Z,61
2022-10-08T22:10:53.209Z,62
2022-10-08T22:13:24.877Z,60
2022-10-08T22:15:57.279Z,62
2022-10-08T22:18:30.007Z,68
2022-10-08T22:21:00.730Z,62
2022-10-08T22:23:31.336Z,68
2022-10-08T22:26:02.187Z,72
2022-10-08T22:28:33.545Z,67
2022-10-08T22:31:04.102Z,65
2022-10-08T22:36:11.681Z,61
2022-10-08T22:38:42.355Z,67
2022-10-08T22:41:13.759Z,65
2022-10-08T22:43:49.673Z,69
2022-10-08T22:46:21.617Z,65
2022-10-08T22:48:51.872Z,64
2022-10-08T22:51:25.819Z,62
2022-10-08T22:53:57.190Z,61
2022-10-08T22:56:28.415Z,65
2022-10-08T22:59:01.922Z,67
2022-10-08T23:01:32.839Z,66
2022-10-08T23:04:03.607Z,64
2022-10-08T23:06:34.814Z,73
2022-10-08T23:09:07.481Z,61
2022-10-08T23:11:38.901Z,68
2022-10-08T23:14:10.088Z,69
2022-10-08T23:16:41.086Z,61
2022-10-08T23:19:12.441Z,64
2022-10-08T23:21:44.409Z,66
2022-10-08T23:24:14.122Z,71
2022-10-08T23:26:44.931Z,72
2022-10-08T23:29:15.954Z,73
2022-10-08T23:31:46.749Z,65
2022-10-08T23:34:19.325Z,65
2022-10-08T23:36:51.126Z,68
2022-10-08T23:39:21.923Z,65
2022-10-08T23:41:53.334Z,75
2022-10-08T23:44:24.027Z,72
2022-10-08T23:46:55.352Z,69
2022-10-08T23:49:26.251Z,75
2022-10-08T23:51:58.091Z,72
2022-10-08T23:54:27.499Z,72
2022-10-08T23:56:57.136Z,71
2022-10-08T23:59:29.169Z,73
